Time;durP1;ratioP1;P1;durP2;ratioP2;P2;SDS_P1;SDS_P2;PMS_P1;PMS_P2;Temp;Humidity;BMP_temperature;BMP_pressure;BME280_temperature;BME280_humidity;BME280_pressure;Samples;Min_cycle;Max_cycle;Signal;HPM_P1;HPM_P2
2021/03/12 00:01:36;;;;;;;74.35;40.13;;;;;;;-0.53;71.39;95041.25;4232833;28;20081;-83
2021/03/12 00:03:37;;;;;;;72.00;39.35;;;;;;;-0.50;71.94;95035.91;4234669;27;20048;-83
2021/03/12 00:05:44;;;;;;;71.45;38.80;;;;;;;-0.46;71.67;95045.94;4227641;28;20056;-85
2021/03/12 00:07:45;;;;;;;110.18;56.42;;;;;;;-0.95;73.27;95046.00;4215208;28;20060;-82
2021/03/12 00:09:46;;;;;;;113.00;57.42;;;;;;;-1.30;75.29;95047.84;4233375;28;20051;-83
2021/03/12 00:11:48;;;;;;;111.80;56.90;;;;;;;-1.51;76.09;95052.34;4220169;28;20058;-81
2021/03/12 00:13:49;;;;;;;114.93;55.67;;;;;;;-1.49;77.35;95048.78;4214970;28;20056;-85
2021/03/12 00:15:51;;;;;;;113.85;56.80;;;;;;;-1.26;76.30;95036.50;4217033;28;20052;-84
2021/03/12 00:17:52;;;;;;;115.85;56.05;;;;;;;-1.10;75.69;95046.81;4233440;28;20494;-71
2021/03/12 00:19:54;;;;;;;117.03;58.47;;;;;;;-0.90;74.83;95036.31;4220572;28;20056;-71
2021/03/12 00:21:55;;;;;;;104.30;52.60;;;;;;;-0.67;73.91;95037.66;4211232;28;20051;-70
2021/03/12 00:23:57;;;;;;;114.93;54.08;;;;;;;-0.45;73.08;95039.91;4227010;28;20239;-71
2021/03/12 00:25:58;;;;;;;95.28;49.22;;;;;;;-0.38;72.38;95042.97;4232091;27;20058;-70
2021/03/12 00:28:00;;;;;;;83.13;45.05;;;;;;;-0.27;71.50;95037.22;4209593;28;20044;-69
2021/03/12 00:30:03;;;;;;;94.97;47.22;;;;;;;-0.12;71.34;95032.97;4197469;28;20048;-70
2021/03/12 00:32:05;;;;;;;92.03;48.67;;;;;;;-0.09;71.02;95023.31;4222250;28;20730;-69
2021/03/12 00:34:06;;;;;;;93.35;49.28;;;;;;;-0.03;70.56;95022.97;4233352;27;20532;-71
2021/03/12 00:36:07;;;;;;;93.78;50.33;;;;;;;0.02;70.40;95022.69;4245377;27;20055;-70
2021/03/12 00:38:10;;;;;;;96.38;49.13;;;;;;;0.08;69.86;95017.19;4234742;27;20051;-69
2021/03/12 00:40:16;;;;;;;89.85;45.55;;;;;;;0.12;69.90;95004.97;4216208;28;20074;-70
2021/03/12 00:42:17;;;;;;;85.60;44.33;;;;;;;0.03;69.75;95003.75;4232232;27;20455;-71
2021/03/12 00:44:27;;;;;;;76.88;42.17;;;;;;;0.09;69.89;95010.31;4226795;28;20052;-70
2021/03/12 00:46:28;;;;;;;60.63;37.80;;;;;;;-0.50;71.31;95005.03;4192441;28;20114;-69
2021/03/12 00:48:30;;;;;;;63.33;37.00;;;;;;;-0.45;71.50;94983.28;4214509;28;20536;-69
2021/03/12 00:50:34;;;;;;;57.88;34.17;;;;;;;-0.31;70.88;94985.06;4214623;28;20048;-70
2021/03/12 00:52:35;;;;;;;59.00;34.05;;;;;;;-0.13;70.09;94977.22;4223834;27;20056;-69
2021/03/12 00:54:36;;;;;;;52.35;32.30;;;;;;;-0.07;69.41;94977.69;4205261;28;20538;-69
2021/03/12 00:56:37;;;;;;;55.33;31.95;;;;;;;-0.09;69.42;94983.84;4225005;27;20050;-70
2021/03/12 00:58:41;;;;;;;51.92;32.90;;;;;;;-0.18;69.18;94985.19;4213722;28;20138;-71
2021/03/12 01:00:42;;;;;;;53.38;32.78;;;;;;;-0.96;71.52;94990.34;4231952;27;20062;-70
2021/03/12 01:02:44;;;;;;;50.33;30.40;;;;;;;-0.92;72.35;94989.28;4225481;28;20356;-70
2021/03/12 01:04:45;;;;;;;51.65;33.20;;;;;;;-0.85;72.52;94995.75;4207825;28;20047;-70
2021/03/12 01:06:47;;;;;;;57.03;33.53;;;;;;;-0.79;72.08;94984.31;4218489;28;20047;-69
2021/03/12 01:08:48;;;;;;;53.70;33.17;;;;;;;-0.61;71.52;94977.31;4210608;28;20060;-71
2021/03/12 01:10:49;;;;;;;55.28;32.45;;;;;;;-0.43;70.97;94981.44;4212110;28;20048;-70
2021/03/12 01:12:51;;;;;;;56.78;31.77;;;;;;;-0.25;70.08;94966.69;4228111;28;20055;-70
2021/03/12 01:14:52;;;;;;;52.30;30.73;;;;;;;-0.09;69.99;94969.22;4227084;28;20047;-70
2021/03/12 01:16:54;;;;;;;53.00;31.73;;;;;;;0.04;69.39;94973.66;4201494;28;20043;-70
2021/03/12 01:18:56;;;;;;;53.30;31.92;;;;;;;0.12;69.07;94967.16;4210949;28;20170;-69
2021/03/12 01:20:57;;;;;;;55.67;32.97;;;;;;;0.21;68.48;94952.91;4208408;28;20510;-70
2021/03/12 01:22:59;;;;;;;53.97;32.05;;;;;;;0.22;68.65;94952.00;4228367;28;20886;-70
2021/03/12 01:25:01;;;;;;;52.60;33.47;;;;;;;0.17;68.52;94954.00;4227941;28;20187;-71
2021/03/12 01:27:04;;;;;;;53.05;31.38;;;;;;;0.14;68.47;94954.19;4226659;28;20108;-71
2021/03/12 01:29:05;;;;;;;51.90;31.40;;;;;;;0.20;68.12;94949.50;4214424;28;20059;-70
2021/03/12 01:31:06;;;;;;;58.17;34.17;;;;;;;0.22;68.07;94952.00;4236457;27;20047;-70
2021/03/12 01:33:08;;;;;;;54.10;31.38;;;;;;;0.22;68.04;94951.19;4231409;28;20134;-71
2021/03/12 01:35:10;;;;;;;50.47;30.95;;;;;;;0.07;68.29;94966.59;4224440;28;20048;-71
2021/03/12 01:37:12;;;;;;;50.78;29.90;;;;;;;-0.01;68.32;94967.03;4219018;28;20055;-71
2021/03/12 01:39:13;;;;;;;52.05;30.25;;;;;;;-0.04;68.53;94940.66;4219667;28;20051;-70
2021/03/12 01:41:14;;;;;;;50.28;30.13;;;;;;;-0.17;68.86;94950.81;4224888;28;20046;-70
2021/03/12 01:43:16;;;;;;;47.47;29.50;;;;;;;-0.52;69.67;94956.19;4226265;28;20493;-70
2021/03/12 01:45:32;;;;;;;44.53;28.88;;;;;;;-0.99;71.48;94945.97;4208480;28;20546;-71
2021/03/12 01:47:33;;;;;;;51.30;31.25;;;;;;;-1.68;74.02;94946.16;4226036;28;20051;-68
2021/03/12 01:49:34;;;;;;;48.40;29.83;;;;;;;-1.73;74.81;94966.09;4228624;28;20134;-71
2021/03/12 01:51:36;;;;;;;56.90;32.35;;;;;;;-2.11;76.64;94975.72;4224143;28;20567;-70
2021/03/12 01:53:38;;;;;;;53.45;32.83;;;;;;;-2.37;77.11;94990.66;4203651;28;20051;-70
2021/03/12 01:55:39;;;;;;;57.25;32.78;;;;;;;-2.31;77.56;94974.97;4223089;28;20066;-70
2021/03/12 01:57:41;;;;;;;50.60;32.40;;;;;;;-2.08;76.57;94978.97;4193020;28;20109;-71
2021/03/12 01:59:42;;;;;;;59.17;32.75;;;;;;;-2.15;76.80;94985.31;4228144;28;20058;-70
2021/03/12 02:01:43;;;;;;;56.45;31.50;;;;;;;-2.28;76.80;94979.97;4194978;28;20040;-70
2021/03/12 02:03:45;;;;;;;54.88;32.92;;;;;;;-2.10;76.53;94973.09;4209998;28;20052;-70
2021/03/12 02:05:46;;;;;;;52.90;32.25;;;;;;;-1.92;76.13;94970.50;4207230;28;20048;-70
2021/03/12 02:07:47;;;;;;;63.50;35.38;;;;;;;-1.94;76.42;94967.19;4233694;27;20464;-71
2021/03/12 02:09:49;;;;;;;68.15;37.05;;;;;;;-1.68;75.04;94955.56;4216055;28;20461;-70
2021/03/12 02:12:14;;;;;;;63.13;35.58;;;;;;;-1.40;74.29;94942.13;4216139;28;20147;-71
2021/03/12 02:14:27;;;;;;;64.22;37.45;;;;;;;-1.15;74.20;94926.22;4218659;28;20059;-70
2021/03/12 02:16:36;;;;;;;65.90;36.55;;;;;;;-0.88;73.25;94923.91;4218588;28;20056;-73
2021/03/12 02:18:55;;;;;;;70.25;38.45;;;;;;;-0.65;72.25;94924.34;4196130;28;20512;-70
2021/03/12 02:21:17;;;;;;;73.63;38.78;;;;;;;-0.43;71.45;94927.41;4220399;27;20055;-69
2021/03/12 02:23:38;;;;;;;67.35;37.25;;;;;;;-0.27;69.97;94923.94;4229878;28;20100;-71
2021/03/12 02:25:42;;;;;;;71.15;37.58;;;;;;;-0.18;69.59;94915.69;4209619;28;20043;-70
2021/03/12 02:27:44;;;;;;;64.10;35.70;;;;;;;-0.15;69.66;94925.81;4212022;28;20095;-72
2021/03/12 02:29:48;;;;;;;60.78;35.70;;;;;;;-0.10;69.41;94916.06;4218777;28;20074;-71
2021/03/12 02:31:53;;;;;;;62.95;36.33;;;;;;;-0.08;69.59;94913.41;4218663;28;20636;-70
2021/03/12 02:33:56;;;;;;;67.95;36.95;;;;;;;-0.02;68.92;94901.00;4216250;28;20043;-71
2021/03/12 02:35:58;;;;;;;62.43;36.63;;;;;;;0.05;68.74;94904.03;4208595;28;20135;-71
2021/03/12 02:38:00;;;;;;;61.42;36.20;;;;;;;0.09;68.53;94894.41;4212309;28;20760;-69
2021/03/12 02:40:02;;;;;;;59.33;36.00;;;;;;;0.09;69.05;94889.25;4208141;28;20052;-71
2021/03/12 02:42:04;;;;;;;59.03;35.13;;;;;;;0.18;68.86;94902.41;4230504;28;20048;-69
2021/03/12 02:44:07;;;;;;;66.63;37.17;;;;;;;0.20;68.49;94890.25;4241076;27;20070;-70
2021/03/12 02:46:08;;;;;;;60.88;36.33;;;;;;;0.14;68.20;94898.34;4217259;27;20549;-69
2021/03/12 02:48:11;;;;;;;65.05;36.50;;;;;;;-0.14;68.58;94888.84;4223924;28;20044;-71
2021/03/12 02:50:13;;;;;;;66.07;37.75;;;;;;;-0.33;70.03;94883.09;4209586;28;20050;-70
2021/03/12 02:52:14;;;;;;;60.55;36.83;;;;;;;-0.29;70.38;94876.88;4210991;28;20051;-71
2021/03/12 02:54:16;;;;;;;65.22;36.40;;;;;;;-0.22;70.55;94891.03;4193409;28;20059;-70
2021/03/12 02:56:20;;;;;;;67.05;39.50;;;;;;;-0.13;70.15;94889.66;4229409;28;20063;-70
2021/03/12 02:58:22;;;;;;;67.07;37.58;;;;;;;-0.38;70.08;94898.81;4194063;28;20672;-68
2021/03/12 03:00:24;;;;;;;62.67;37.60;;;;;;;-0.44;71.06;94912.84;4211702;28;20040;-70
2021/03/12 03:02:27;;;;;;;62.40;37.70;;;;;;;-0.40;70.83;94915.28;4211220;28;20089;-71
2021/03/12 03:04:29;;;;;;;61.22;36.33;;;;;;;-0.34;70.86;94917.50;4210910;28;20056;-71
2021/03/12 03:06:31;;;;;;;58.97;35.85;;;;;;;-0.22;70.37;94899.56;4227878;28;20635;-70
2021/03/12 03:08:33;;;;;;;58.67;35.95;;;;;;;-0.10;69.60;94898.03;4212557;28;20545;-70
2021/03/12 03:10:35;;;;;;;65.28;36.50;;;;;;;-0.05;69.33;94888.28;4222008;28;20105;-70
2021/03/12 03:12:36;;;;;;;62.22;35.28;;;;;;;0.01;69.15;94876.00;4219018;28;20450;-71
2021/03/12 03:14:38;;;;;;;62.13;36.60;;;;;;;0.05;69.19;94885.19;4207077;28;20055;-82
2021/03/12 03:16:45;;;;;;;61.15;35.78;;;;;;;0.09;68.93;94872.03;4212189;28;20055;-83
2021/03/12 03:18:47;;;;;;;63.85;36.13;;;;;;;0.14;68.73;94871.75;4228063;28;20261;-82
2021/03/12 03:20:48;;;;;;;62.00;35.53;;;;;;;0.13;68.84;94863.22;4223334;28;20524;-83
2021/03/12 03:22:50;;;;;;;64.40;37.17;;;;;;;0.21;68.71;94852.41;4226069;28;20058;-83
2021/03/12 03:24:51;;;;;;;63.28;37.15;;;;;;;0.18;68.88;94848.28;4236160;28;20038;-82
2021/03/12 03:26:53;;;;;;;63.95;37.53;;;;;;;0.19;69.31;94851.69;4219286;27;20052;-84
2021/03/12 03:28:55;;;;;;;57.88;37.10;;;;;;;0.21;69.39;94857.56;4225958;28;20135;-83
2021/03/12 03:30:56;;;;;;;59.65;35.97;;;;;;;0.22;69.00;94855.84;4215191;28;20225;-84
2021/03/12 03:32:57;;;;;;;64.15;38.60;;;;;;;0.24;68.85;94852.25;4215857;28;20071;-82
2021/03/12 03:34:59;;;;;;;65.65;36.38;;;;;;;0.26;69.60;94862.44;4231417;28;20032;-83
2021/03/12 03:37:00;;;;;;;59.22;35.60;;;;;;;0.31;68.69;94858.69;4233840;28;20063;-84
2021/03/12 03:39:02;;;;;;;59.45;35.85;;;;;;;0.38;69.02;94851.41;4204156;28;20047;-83
2021/03/12 03:41:06;;;;;;;58.25;35.03;;;;;;;0.43;68.54;94856.28;4198587;28;20048;-84
2021/03/12 03:43:08;;;;;;;59.28;37.38;;;;;;;0.42;68.35;94868.34;4225056;28;20434;-84
2021/03/12 03:45:10;;;;;;;65.47;36.38;;;;;;;0.37;68.14;94871.19;4215627;28;20189;-83
2021/03/12 03:47:12;;;;;;;62.08;37.10;;;;;;;0.41;68.40;94861.53;4219360;28;20566;-83
2021/03/12 03:49:15;;;;;;;63.58;37.03;;;;;;;0.37;68.08;94862.66;4217587;28;20052;-83
2021/03/12 03:51:17;;;;;;;55.53;34.28;;;;;;;0.36;69.05;94853.25;4195829;28;20067;-83
2021/03/12 03:53:20;;;;;;;64.57;36.40;;;;;;;0.24;69.10;94857.41;4198399;28;20045;-84
2021/03/12 03:55:23;;;;;;;58.95;36.35;;;;;;;0.06;68.80;94856.75;4224623;28;20040;-84
2021/03/12 03:57:25;;;;;;;61.60;37.88;;;;;;;-0.28;69.81;94850.19;4232355;28;20519;-83
2021/03/12 03:59:27;;;;;;;59.28;34.55;;;;;;;-0.35;70.42;94854.03;4216009;28;20060;-85
2021/03/12 04:01:29;;;;;;;59.30;37.40;;;;;;;-0.52;71.31;94855.00;4205061;28;20367;-83
2021/03/12 04:03:30;;;;;;;64.38;37.45;;;;;;;-0.55;71.53;94861.16;4228418;28;20649;-81
2021/03/12 04:05:32;;;;;;;62.05;36.97;;;;;;;-0.43;71.66;94857.06;4216948;28;20050;-85
2021/03/12 04:07:33;;;;;;;61.95;37.25;;;;;;;-0.33;70.89;94868.47;4217746;28;20373;-82
2021/03/12 04:09:36;;;;;;;66.63;38.03;;;;;;;-0.81;72.78;94861.84;4233717;27;20104;-83
2021/03/12 04:11:38;;;;;;;62.83;37.10;;;;;;;-0.74;72.86;94847.69;4216817;28;20053;-84
2021/03/12 04:13:40;;;;;;;68.18;38.47;;;;;;;-0.59;72.76;94848.56;4244312;27;20108;-81
2021/03/12 04:15:41;;;;;;;65.13;36.78;;;;;;;-0.56;72.14;94849.25;4215051;28;20052;-84
2021/03/12 04:17:43;;;;;;;61.45;36.70;;;;;;;-0.54;72.32;94847.38;4214616;28;20420;-84
2021/03/12 04:19:44;;;;;;;58.75;36.83;;;;;;;-0.45;72.14;94857.16;4231015;28;20130;-83
2021/03/12 04:21:47;;;;;;;64.05;37.35;;;;;;;-0.33;71.57;94859.94;4216900;28;20069;-83
2021/03/12 04:23:48;;;;;;;60.40;36.22;;;;;;;-0.31;71.48;94855.53;4228909;28;20052;-83
2021/03/12 04:25:50;;;;;;;61.13;35.95;;;;;;;-0.65;72.23;94847.16;4234928;27;20047;-83
2021/03/12 04:27:51;;;;;;;62.63;36.33;;;;;;;-0.85;73.19;94856.03;4202453;28;20102;-84
2021/03/12 04:29:53;;;;;;;62.97;38.28;;;;;;;-0.78;72.96;94852.19;4233143;28;20170;-83
2021/03/12 04:31:54;;;;;;;68.47;40.47;;;;;;;-0.67;72.45;94838.72;4214714;28;20059;-85
2021/03/12 04:33:55;;;;;;;68.65;41.88;;;;;;;-0.51;72.42;94844.66;4216375;28;20047;-84
2021/03/12 04:35:57;;;;;;;76.32;43.40;;;;;;;-0.37;71.63;94843.00;4198960;28;20527;-85
2021/03/12 04:37:58;;;;;;;77.47;43.88;;;;;;;-0.51;71.41;94834.34;4225471;28;20058;-84
2021/03/12 04:40:00;;;;;;;76.38;42.75;;;;;;;-0.47;71.68;94835.84;4218379;28;20106;-85
2021/03/12 04:42:04;;;;;;;73.82;43.97;;;;;;;-0.58;72.00;94850.22;4246681;28;20112;-84
2021/03/12 04:44:06;;;;;;;79.35;45.33;;;;;;;-1.01;73.33;94856.06;4215222;28;20048;-84
2021/03/12 04:46:08;;;;;;;78.15;45.40;;;;;;;-1.37;74.95;94857.16;4214999;28;20449;-84
2021/03/12 04:48:10;;;;;;;76.60;44.97;;;;;;;-1.61;75.52;94861.03;4232126;28;20048;-84
2021/03/12 04:50:12;;;;;;;79.10;44.05;;;;;;;-1.67;76.27;94857.91;4215352;28;20047;-81
2021/03/12 04:52:13;;;;;;;71.65;43.33;;;;;;;-1.41;75.86;94865.94;4197690;28;20098;-84
2021/03/12 04:54:16;;;;;;;67.90;40.58;;;;;;;-1.48;75.59;94870.59;4213655;28;20048;-83
2021/03/12 04:56:18;;;;;;;68.18;41.00;;;;;;;-1.51;75.76;94860.47;4214780;28;20044;-82
2021/03/12 04:58:19;;;;;;;68.70;38.28;;;;;;;-1.48;75.95;94867.19;4214584;28;20063;-84
2021/03/12 05:00:21;;;;;;;64.32;38.88;;;;;;;-2.01;76.90;94861.41;4216607;28;20115;-83
2021/03/12 05:02:22;;;;;;;61.80;37.85;;;;;;;-1.90;77.17;94856.53;4234946;28;20082;-82
2021/03/12 05:04:24;;;;;;;65.85;39.72;;;;;;;-1.58;76.69;94850.63;4201990;28;20052;-85
2021/03/12 05:06:25;;;;;;;65.68;39.50;;;;;;;-1.29;75.15;94854.16;4214867;28;20580;-84
2021/03/12 05:08:27;;;;;;;62.92;37.20;;;;;;;-1.04;74.43;94849.31;4219202;28;20468;-85
2021/03/12 05:10:28;;;;;;;59.33;34.83;;;;;;;-0.78;73.36;94834.19;4201933;28;20098;-83
2021/03/12 05:12:33;;;;;;;59.45;35.50;;;;;;;-0.60;72.67;94845.19;4227080;28;20043;-86
2021/03/12 05:14:34;;;;;;;56.05;33.80;;;;;;;-0.73;71.76;94829.63;4228118;28;20152;-84
2021/03/12 05:16:35;;;;;;;54.20;34.78;;;;;;;-0.63;71.94;94822.19;4232551;28;20059;-84
2021/03/12 05:18:37;;;;;;;57.00;35.95;;;;;;;-0.74;71.94;94833.09;4213157;28;20052;-84
2021/03/12 05:20:38;;;;;;;54.95;35.33;;;;;;;-0.69;72.48;94833.69;4232114;28;20105;-85
2021/03/12 05:22:39;;;;;;;51.90;35.08;;;;;;;-1.00;72.61;94852.56;4215071;28;20044;-84
2021/03/12 05:24:40;;;;;;;61.35;37.05;;;;;;;-1.29;73.84;94864.44;4231791;28;20100;-85
2021/03/12 05:26:41;;;;;;;61.10;35.78;;;;;;;-1.33;74.79;94876.66;4213534;28;20056;-85
2021/03/12 05:28:43;;;;;;;56.25;33.63;;;;;;;-1.29;74.55;94873.00;4231896;28;20047;-83
2021/03/12 05:30:44;;;;;;;54.08;31.73;;;;;;;-1.14;74.07;94885.91;4241420;28;20099;-82
2021/03/12 05:32:45;;;;;;;53.67;33.58;;;;;;;-0.98;73.82;94881.59;4244216;28;20048;-83
2021/03/12 05:34:47;;;;;;;59.47;36.40;;;;;;;-0.83;73.57;94882.50;4243224;28;20058;-84
2021/03/12 05:36:49;;;;;;;53.03;33.15;;;;;;;-0.68;72.71;94883.38;4221430;28;20048;-86
2021/03/12 05:38:50;;;;;;;57.53;33.90;;;;;;;-0.47;71.79;94892.44;4233377;28;20292;-85
2021/03/12 05:40:52;;;;;;;57.58;34.80;;;;;;;-0.88;72.60;94902.50;4214274;28;20056;-84
2021/03/12 05:42:55;;;;;;;57.53;31.38;;;;;;;-1.24;73.36;94907.00;4216021;28;20442;-85
2021/03/12 05:44:57;;;;;;;54.17;35.28;;;;;;;-1.38;75.28;94906.06;4216656;28;20060;-85
2021/03/12 05:46:59;;;;;;;59.90;37.25;;;;;;;-1.14;74.43;94894.47;4233054;28;20414;-86
2021/03/12 05:49:02;;;;;;;58.85;38.65;;;;;;;-0.96;74.43;94869.47;4237601;28;20047;-83
2021/03/12 05:51:04;;;;;;;74.90;44.20;;;;;;;-0.70;73.48;94873.16;4215456;28;20052;-85
2021/03/12 05:53:05;;;;;;;68.82;42.65;;;;;;;-0.45;72.17;94885.47;4238757;28;20044;-84
2021/03/12 05:55:07;;;;;;;68.93;40.90;;;;;;;-0.30;71.75;94886.34;4235090;28;20052;-83
2021/03/12 05:57:08;;;;;;;69.72;43.20;;;;;;;-0.17;71.20;94889.03;4232857;28;20052;-86
2021/03/12 05:59:10;;;;;;;71.45;43.20;;;;;;;-0.03;70.75;94888.22;4227578;28;20056;-87
2021/03/12 06:01:13;;;;;;;71.80;42.40;;;;;;;0.04;69.97;94879.19;4233358;28;20127;-88
2021/03/12 06:03:14;;;;;;;65.53;40.42;;;;;;;0.11;69.81;94882.25;4215257;28;20040;-88
2021/03/12 06:05:16;;;;;;;71.72;41.90;;;;;;;0.16;69.41;94885.38;4215477;28;20052;-85
2021/03/12 06:07:17;;;;;;;69.10;42.85;;;;;;;0.26;68.99;94885.63;4233686;28;20058;-86
2021/03/12 06:09:18;;;;;;;70.32;41.58;;;;;;;0.33;68.86;94899.81;4231697;28;20055;-85
2021/03/12 06:11:20;;;;;;;63.17;41.00;;;;;;;0.40;68.34;94903.69;4246975;28;20465;-85
2021/03/12 06:13:21;;;;;;;69.60;42.67;;;;;;;0.42;68.63;94907.00;4232205;28;20047;-87
2021/03/12 06:15:36;;;;;;;58.25;37.03;;;;;;;0.33;68.79;94931.56;4219155;28;20063;-88
2021/03/12 06:17:44;;;;;;;62.38;36.95;;;;;;;0.34;68.82;94925.50;4219473;28;20090;-85
2021/03/12 06:19:55;;;;;;;57.28;36.17;;;;;;;0.38;68.43;94921.00;4235348;28;20079;-85
2021/03/12 06:22:06;;;;;;;58.30;36.85;;;;;;;0.43;68.25;94918.13;4215422;28;20453;-88
2021/03/12 06:24:33;;;;;;;58.83;36.47;;;;;;;0.52;68.25;94922.75;4233482;28;20047;-86
2021/03/12 06:26:44;;;;;;;57.38;36.25;;;;;;;0.64;67.30;94914.25;4231152;28;20054;-85
2021/03/12 06:29:08;;;;;;;56.72;36.75;;;;;;;0.70;66.84;94906.13;4197326;28;20056;-86
2021/03/12 06:31:33;;;;;;;59.20;35.70;;;;;;;0.85;66.80;94903.56;4208353;28;20487;-85
2021/03/12 06:33:35;;;;;;;57.40;35.95;;;;;;;0.94;66.13;94915.88;4222394;28;20074;-86
2021/03/12 06:35:38;;;;;;;56.30;36.75;;;;;;;0.98;65.39;94913.00;4245391;28;20124;-86
2021/03/12 06:37:40;;;;;;;57.95;36.40;;;;;;;1.00;65.19;94915.50;4215306;28;20052;-86
2021/03/12 06:39:42;;;;;;;61.13;38.50;;;;;;;1.08;65.51;94921.00;4234194;28;20051;-87
2021/03/12 06:41:46;;;;;;;56.38;37.05;;;;;;;1.10;65.12;94934.63;4223846;28;20067;-86
2021/03/12 06:43:48;;;;;;;51.92;34.78;;;;;;;1.15;65.09;94953.22;4206252;28;20135;-86
2021/03/12 06:46:09;;;;;;;55.55;36.35;;;;;;;1.10;65.00;94960.44;4223003;27;20039;-88
2021/03/12 06:48:29;;;;;;;51.42;34.95;;;;;;;1.13;64.60;94967.97;4244987;27;20472;-86
2021/03/12 06:50:56;;;;;;;56.00;36.35;;;;;;;1.16;64.76;94977.28;4239789;28;20555;-86
2021/03/12 06:52:57;;;;;;;53.65;36.65;;;;;;;0.68;66.68;94987.09;4240876;28;20083;-87
2021/03/12 06:54:58;;;;;;;55.60;36.90;;;;;;;0.74;66.55;94984.97;4218890;28;20048;-87
2021/03/12 06:57:00;;;;;;;55.15;35.35;;;;;;;0.86;66.12;94983.41;4240958;27;20043;-74
2021/03/12 06:59:03;;;;;;;55.47;36.08;;;;;;;0.92;66.13;94985.59;4216415;28;20051;-73
2021/03/12 07:01:19;;;;;;;55.00;34.72;;;;;;;1.04;66.16;94991.78;4230142;27;20156;-72
2021/03/12 07:03:28;;;;;;;49.97;33.42;;;;;;;1.12;64.86;94993.88;4222776;28;20051;-72
2021/03/12 07:05:56;;;;;;;48.70;32.88;;;;;;;1.26;64.11;94986.09;4214971;28;20082;-85
2021/03/12 07:07:57;;;;;;;53.97;33.97;;;;;;;1.36;64.77;94983.78;4216485;28;20063;-87
2021/03/12 07:09:58;;;;;;;53.70;34.67;;;;;;;1.38;64.32;94977.59;4201359;28;20090;-87
2021/03/12 07:12:02;;;;;;;51.05;33.40;;;;;;;1.33;64.44;94989.94;4235452;28;20501;-87
2021/03/12 07:14:04;;;;;;;56.50;35.83;;;;;;;1.44;64.25;95004.78;4206015;28;20067;-86
2021/03/12 07:16:05;;;;;;;56.65;34.35;;;;;;;1.50;64.92;94999.22;4231090;28;20047;-85
2021/03/12 07:18:07;;;;;;;55.38;35.08;;;;;;;1.61;64.36;94986.50;4202645;28;20049;-87
2021/03/12 07:20:10;;;;;;;50.30;33.35;;;;;;;1.77;64.05;94993.25;4218539;28;20043;-87
2021/03/12 07:22:12;;;;;;;54.17;34.92;;;;;;;1.92;63.52;95000.00;4213448;28;20522;-86
2021/03/12 07:24:16;;;;;;;50.10;33.65;;;;;;;1.98;61.82;94989.28;4233588;28;20050;-87
2021/03/12 07:26:17;;;;;;;;;;;;;;;2.12;62.66;94990.94;4221009;28;20052;-86
2021/03/12 07:28:21;;;;;;;52.83;35.17;;;;;;;2.15;61.67;94992.50;4230738;28;19920;-85
2021/03/12 07:30:22;;;;;;;54.55;35.42;;;;;;;2.12;62.40;94993.53;4212279;28;20519;-86
2021/03/12 07:32:25;;;;;;;52.17;36.05;;;;;;;2.31;62.85;94987.97;4206588;28;20067;-87
2021/03/12 07:34:30;;;;;;;55.00;37.78;;;;;;;2.35;61.69;94981.69;4226531;28;20051;-87
2021/03/12 07:36:32;;;;;;;61.45;37.63;;;;;;;2.47;62.08;94977.44;4222810;28;20048;-87
2021/03/12 07:38:37;;;;;;;57.30;38.83;;;;;;;2.51;61.85;94972.91;4220617;28;20055;-85
2021/03/12 07:40:38;;;;;;;60.33;39.75;;;;;;;2.54;62.12;94976.13;4221431;28;20119;-86
2021/03/12 07:42:40;;;;;;;59.70;37.72;;;;;;;2.56;61.36;94978.56;4201143;28;20485;-86
2021/03/12 07:44:45;;;;;;;54.75;36.67;;;;;;;2.17;62.91;94973.41;4216959;28;20062;-87
2021/03/12 07:46:56;;;;;;;52.42;36.40;;;;;;;2.32;62.87;94961.19;4218721;28;20055;-86
2021/03/12 07:48:58;;;;;;;57.15;39.13;;;;;;;2.50;63.73;94953.97;4231104;28;20135;-86
2021/03/12 07:51:13;;;;;;;56.58;37.83;;;;;;;2.69;63.56;94968.22;4211474;28;20056;-73
2021/03/12 07:53:14;;;;;;;57.53;35.63;;;;;;;2.75;63.19;94978.97;4216992;28;20043;-72
2021/03/12 07:55:37;;;;;;;51.80;34.60;;;;;;;3.02;62.73;94970.25;4217660;28;20052;-73
2021/03/12 07:57:41;;;;;;;51.95;35.00;;;;;;;3.17;61.63;94952.84;4224918;28;20105;-72
2021/03/12 07:59:47;;;;;;;54.63;35.70;;;;;;;3.25;60.80;94945.38;4228537;28;20281;-74
2021/03/12 08:01:53;;;;;;;50.83;35.28;;;;;;;3.26;60.38;94941.81;4202712;28;20079;-72
2021/03/12 08:03:54;;;;;;;47.95;33.72;;;;;;;3.18;60.59;94933.78;4204309;28;20054;-73
2021/03/12 08:05:56;;;;;;;51.28;32.40;;;;;;;3.28;60.41;94927.81;4201970;28;20472;-73
2021/03/12 08:07:57;;;;;;;44.55;31.30;;;;;;;3.35;59.89;94927.41;4195970;28;20053;-71
2021/03/12 08:10:17;;;;;;;52.22;32.78;;;;;;;3.55;61.10;94934.59;4226476;28;20044;-74
2021/03/12 08:12:37;;;;;;;47.58;31.90;;;;;;;3.22;59.69;94933.44;4205975;28;20467;-73
2021/03/12 08:14:38;;;;;;;46.92;32.65;;;;;;;2.57;61.82;94937.09;4242024;27;20138;-74
2021/03/12 08:17:04;;;;;;;46.22;31.33;;;;;;;2.04;63.75;94932.03;4213547;28;20598;-72
2021/03/12 08:19:31;;;;;;;49.17;32.97;;;;;;;2.01;64.62;94942.56;4224842;27;20502;-73
2021/03/12 08:21:33;;;;;;;54.47;34.50;;;;;;;1.53;65.71;94938.84;4241642;27;20050;-70
2021/03/12 08:23:35;;;;;;;52.40;34.33;;;;;;;1.25;67.34;94955.22;4231403;27;20047;-72
2021/03/12 08:25:40;;;;;;;46.33;29.33;;;;;;;1.42;66.04;94973.09;4228458;27;20166;-73
2021/03/12 08:27:47;;;;;;;43.05;27.73;;;;;;;1.50;65.17;94983.72;4223502;27;20117;-73
2021/03/12 08:29:49;;;;;;;46.92;28.70;;;;;;;1.86;65.06;94982.31;4212498;28;20056;-72
2021/03/12 08:31:50;;;;;;;42.05;25.88;;;;;;;2.11;63.80;94980.69;4227340;28;20043;-73
2021/03/12 08:33:51;;;;;;;47.22;24.90;;;;;;;2.37;63.69;94976.41;4209152;28;20081;-74
2021/03/12 08:35:54;;;;;;;37.03;26.13;;;;;;;2.67;62.76;94973.53;4202153;28;20059;-72
2021/03/12 08:37:58;;;;;;;36.08;24.65;;;;;;;2.92;60.84;94980.41;4210032;28;20220;-72
2021/03/12 08:40:15;;;;;;;36.50;24.52;;;;;;;3.13;59.41;94988.47;4209292;28;20513;-73
2021/03/12 08:42:16;;;;;;;36.63;23.90;;;;;;;3.28;59.26;94978.78;4209847;28;20040;-71
2021/03/12 08:44:18;;;;;;;38.80;25.55;;;;;;;3.48;58.61;94982.56;4205567;28;20424;-73
2021/03/12 08:46:27;;;;;;;39.50;25.45;;;;;;;3.71;57.68;94973.16;4179877;28;20053;-72
2021/03/12 08:48:34;;;;;;;42.75;27.52;;;;;;;3.94;57.28;94963.72;4207437;28;20127;-74
2021/03/12 08:50:38;;;;;;;45.88;29.00;;;;;;;4.08;56.87;94965.28;4210387;28;20832;-74
2021/03/12 08:52:46;;;;;;;43.35;29.52;;;;;;;4.08;57.20;94966.09;4217498;28;20040;-74
2021/03/12 08:54:49;;;;;;;43.70;28.95;;;;;;;4.17;56.51;94958.59;4225992;28;20483;-73
2021/03/12 08:56:51;;;;;;;48.35;28.92;;;;;;;4.09;56.71;94967.78;4227959;28;20479;-73
2021/03/12 08:58:53;;;;;;;42.50;28.63;;;;;;;4.22;56.90;94961.69;4227592;28;20065;-73
2021/03/12 09:00:56;;;;;;;45.22;29.15;;;;;;;3.69;56.94;94969.84;4210499;28;20762;-74
2021/03/12 09:03:29;;;;;;;45.65;27.25;;;;;;;3.10;58.20;94967.97;4241459;27;20043;-84
2021/03/12 09:05:31;;;;;;;40.85;25.48;;;;;;;2.83;59.67;94971.53;4230990;27;20052;-70
2021/03/12 09:07:57;;;;;;;43.38;26.98;;;;;;;3.11;59.41;94967.03;4224254;28;20471;-72
2021/03/12 09:09:58;;;;;;;47.15;26.15;;;;;;;2.98;59.16;94963.66;4216845;28;20055;-72
2021/03/12 09:12:00;;;;;;;40.20;25.80;;;;;;;2.67;60.21;94960.59;4237520;27;20058;-72
2021/03/12 09:14:02;;;;;;;38.60;25.33;;;;;;;2.90;60.02;94956.41;4195739;28;20506;-74
2021/03/12 09:16:05;;;;;;;40.83;26.63;;;;;;;3.24;59.10;94951.47;4239741;27;20410;-73
2021/03/12 09:18:16;;;;;;;39.55;25.40;;;;;;;3.56;58.22;94954.34;4214868;28;20047;-73
2021/03/12 09:20:22;;;;;;;46.13;25.70;;;;;;;3.95;57.89;94941.22;4224755;28;20043;-74
2021/03/12 09:22:23;;;;;;;36.45;25.48;;;;;;;4.22;56.25;94936.56;4207482;28;20055;-72
2021/03/12 09:24:24;;;;;;;44.22;27.40;;;;;;;4.42;56.46;94948.03;4208412;28;20099;-72
2021/03/12 09:26:31;;;;;;;40.03;26.25;;;;;;;3.90;56.48;94937.19;4216894;27;20049;-71
2021/03/12 09:28:32;;;;;;;43.58;25.80;;;;;;;3.74;56.43;94941.00;4231674;27;20124;-72
2021/03/12 09:30:39;;;;;;;44.03;26.67;;;;;;;3.44;57.94;94944.84;4217272;28;20048;-70
2021/03/12 09:32:41;;;;;;;42.65;25.33;;;;;;;3.55;57.69;94939.75;4217833;28;20127;-71
2021/03/12 09:34:42;;;;;;;34.70;25.30;;;;;;;3.41;58.20;94934.72;4222694;28;20051;-73